Time;durP1;ratioP1;P1;durP2;ratioP2;P2;SDS_P1;SDS_P2;PMS_P1;PMS_P2;Temp;Humidity;BMP_temperature;BMP_pressure;BME280_temperature;BME280_humidity;BME280_pressure;Samples;Min_cycle;Max_cycle;Signal;HPM_P1;HPM_P2
2022/02/08 00:00:06;;;;;;;1.98;0.80;;;1.80;99.90;;;1.59;88.21;98396.34;173606;28;1244;-76
2022/02/08 00:00:14;;;;;;;0.70;0.70;;;1.80;99.90;;;1.66;87.98;98408.22;171800;28;1383;-76
2022/02/08 00:00:20;;;;;;;1.27;0.77;;;1.80;99.90;;;1.53;87.92;98386.16;172963;28;1559;-76
2022/02/08 00:00:26;;;;;;;1.60;0.80;;;1.80;99.90;;;1.60;88.29;98398.06;171616;28;1597;-76
2022/02/08 00:00:32;;;;;;;1.95;0.82;;;1.80;99.90;;;1.58;88.45;98394.66;171802;28;1005;-76
2022/02/08 00:00:41;;;;;;;2.30;0.90;;;1.80;99.90;;;1.67;88.30;98414.38;171909;28;883;-76
2022/02/08 00:00:49;;;;;;;2.50;0.90;;;1.80;99.90;;;1.55;88.03;98394.88;172365;28;1280;-76
2022/02/08 00:00:55;;;;;;;2.53;0.90;;;1.80;99.90;;;1.61;88.02;98407.69;172735;28;1575;-76
2022/02/08 00:01:02;;;;;;;3.44;0.94;;;1.80;99.90;;;1.71;87.98;98419.34;172523;28;1013;-76
2022/02/08 00:01:08;;;;;;;3.22;0.90;;;1.80;99.90;;;1.63;88.19;98407.59;173942;28;1510;-76
2022/02/08 00:01:14;;;;;;;3.30;0.88;;;1.80;99.90;;;1.46;88.32;98374.28;173878;28;878;-76
2022/02/08 00:01:22;;;;;;;4.10;0.90;;;1.80;99.90;;;1.59;88.53;98401.66;173160;28;1484;-76
2022/02/08 00:01:29;;;;;;;4.92;0.80;;;1.80;99.90;;;1.56;88.16;98401.88;171882;28;962;-76
2022/02/08 00:01:39;;;;;;;4.08;0.70;;;1.80;99.90;;;1.56;88.30;98401.88;172363;28;1044;-76
2022/02/08 00:01:58;;;;;;;4.13;0.71;;;1.80;99.90;;;1.63;88.33;98415.56;173089;28;1391;-76
2022/02/08 00:02:08;;;;;;;1.95;0.70;;;1.80;99.90;;;1.70;88.40;98430.09;172279;28;1436;-76
2022/02/08 00:02:15;;;;;;;1.29;0.60;;;1.80;99.90;;;1.58;88.43;98409.72;173089;28;1111;-76
2022/02/08 00:02:21;;;;;;;1.20;0.60;;;1.70;99.90;;;1.65;88.73;98414.50;173215;28;934;-76
2022/02/08 00:02:29;;;;;;;1.17;0.60;;;1.70;99.90;;;1.68;88.67;98424.03;172255;28;1393;-76
2022/02/08 00:02:40;;;;;;;1.14;0.60;;;1.70;99.90;;;1.60;88.68;98410.47;172405;28;1411;-76
2022/02/08 00:02:51;;;;;;;0.98;0.61;;;1.80;99.90;;;1.59;88.30;98406.97;172254;28;1431;-76
2022/02/08 00:02:57;;;;;;;1.73;0.82;;;1.80;99.90;;;1.68;88.01;98422.22;173014;28;1199;-76
2022/02/08 00:03:03;;;;;;;1.70;0.80;;;1.70;99.90;;;1.63;88.21;98410.25;171771;28;1375;-76
2022/02/08 00:03:09;;;;;;;2.00;0.85;;;1.80;99.90;;;1.62;88.27;98420.00;172727;28;1327;-76
2022/02/08 00:03:18;;;;;;;1.47;0.80;;;1.70;99.90;;;1.63;88.50;98412.91;172593;28;843;-76
2022/02/08 00:03:24;;;;;;;1.74;0.63;;;1.70;99.90;;;1.64;88.15;98426.06;172051;28;1188;-76
2022/02/08 00:03:30;;;;;;;2.35;0.63;;;1.70;99.90;;;1.69;88.65;98425.75;171642;28;1433;-76
2022/02/08 00:03:36;;;;;;;3.70;0.70;;;1.70;99.90;;;1.53;88.14;98407.41;172722;28;1075;-76
2022/02/08 00:03:43;;;;;;;3.70;0.70;;;1.70;99.90;;;1.59;88.80;98414.94;172480;28;1282;-76
2022/02/08 00:03:49;;;;;;;3.70;0.70;;;1.70;99.90;;;1.62;88.76;98421.81;171201;28;1431;-76
2022/02/08 00:03:55;;;;;;;2.80;0.77;;;1.70;99.90;;;1.62;88.68;98419.16;172509;28;859;-76
2022/02/08 00:04:01;;;;;;;2.22;0.75;;;1.70;99.90;;;1.52;88.93;98405.69;173064;28;1206;-76
2022/02/08 00:04:07;;;;;;;0.67;0.67;;;1.70;99.90;;;1.52;88.21;98403.03;173521;28;1852;-76
2022/02/08 00:04:13;;;;;;;0.70;0.70;;;1.70;99.90;;;1.49;88.37;98395.31;172808;28;919;-76
2022/02/08 00:04:19;;;;;;;0.70;0.68;;;1.70;99.90;;;1.59;88.39;98422.88;173050;28;1147;-76
2022/02/08 00:04:25;;;;;;;1.00;0.65;;;1.70;99.90;;;1.39;88.48;98381.00;173072;28;1589;-76
2022/02/08 00:04:31;;;;;;;1.40;0.62;;;1.70;99.90;;;1.68;88.61;98432.00;172391;28;1459;-76
2022/02/08 00:04:37;;;;;;;2.13;0.73;;;1.70;99.90;;;1.61;88.43;98414.81;172329;28;1425;-76
2022/02/08 00:04:43;;;;;;;2.20;0.75;;;1.70;99.90;;;1.54;88.40;98406.44;173100;28;1211;-76
2022/02/08 00:04:50;;;;;;;2.17;0.73;;;1.70;99.90;;;1.67;88.72;98430.28;173111;28;1302;-76
2022/02/08 00:04:58;;;;;;;2.70;0.77;;;1.70;99.90;;;1.61;88.42;98420.97;172647;28;1346;-76
2022/02/08 00:05:07;;;;;;;2.32;0.80;;;1.70;99.90;;;1.48;88.58;98398.91;172898;28;1592;-76
2022/02/08 00:05:15;;;;;;;1.59;0.70;;;1.70;99.90;;;1.60;88.69;98421.94;173677;28;1543;-76
2022/02/08 00:05:24;;;;;;;1.33;0.67;;;1.70;99.90;;;1.58;88.92;98415.88;172405;28;903;-76
2022/02/08 00:05:30;;;;;;;0.68;0.52;;;1.70;99.90;;;1.55;89.13;98421.41;172428;28;1367;-75
2022/02/08 00:05:37;;;;;;;0.70;0.50;;;1.70;99.90;;;1.57;88.97;98424.78;172825;28;1256;-76
2022/02/08 00:05:46;;;;;;;1.03;0.63;;;1.70;99.90;;;1.51;88.64;98409.31;172557;28;1462;-76
2022/02/08 00:06:41;;;;;;;1.33;0.79;;;1.70;99.90;;;1.64;88.65;98433.19;173163;28;1124;-76
2022/02/08 00:06:55;;;;;;;2.04;0.73;;;1.70;99.90;;;1.63;88.72;98434.97;170292;29;1214;-76
2022/02/08 00:06:55;;;;;;;2.05;0.89;;;1.70;99.90;;;1.58;89.07;98431.81;169828;29;1297;-76
2022/02/08 00:07:03;;;;;;;1.20;0.60;;;1.70;99.90;;;1.60;89.00;98426.41;171951;28;1299;-76
2022/02/08 00:07:11;;;;;;;0.85;0.50;;;1.70;99.90;;;1.60;89.16;98427.25;171346;28;978;-76
2022/02/08 00:07:16;;;;;;;0.57;0.57;;;1.70;99.90;;;1.63;89.18;98432.31;171831;28;1401;-76
2022/02/08 00:07:24;;;;;;;0.77;0.77;;;1.70;99.90;;;1.56;89.19;98417.78;172407;28;1215;-76
2022/02/08 00:07:32;;;;;;;1.30;0.80;;;1.70;99.90;;;1.54;88.92;98419.72;171866;28;1324;-76
2022/02/08 00:07:38;;;;;;;1.52;0.90;;;1.70;99.90;;;1.64;89.31;98431.38;173775;28;1334;-76
2022/02/08 00:07:48;;;;;;;1.63;0.90;;;1.70;99.90;;;1.44;88.90;98402.75;173091;28;1353;-76
2022/02/08 00:07:55;;;;;;;1.30;0.60;;;1.70;99.90;;;1.60;89.17;98416.63;173123;28;1331;-76
2022/02/08 00:08:01;;;;;;;1.12;0.58;;;1.70;99.90;;;1.68;89.04;98440.81;172482;28;965;-76
2022/02/08 00:08:07;;;;;;;1.05;0.50;;;1.70;99.90;;;1.58;88.94;98421.19;172410;28;1453;-76
2022/02/08 00:08:13;;;;;;;1.45;0.50;;;1.70;99.90;;;1.63;88.65;98427.03;172116;28;1262;-76
2022/02/08 00:08:19;;;;;;;1.20;0.50;;;1.70;99.90;;;1.62;89.18;98422.66;172489;28;1282;-76
2022/02/08 00:08:25;;;;;;;1.35;0.50;;;1.70;99.90;;;1.63;89.12;98429.66;173531;28;1278;-76
2022/02/08 00:08:31;;;;;;;1.38;0.55;;;1.70;99.90;;;1.57;89.13;98418.63;172981;28;1060;-76
2022/02/08 00:08:37;;;;;;;1.33;0.55;;;1.70;99.90;;;1.55;89.01;98413.47;173112;28;1388;-76
2022/02/08 00:08:43;;;;;;;1.00;0.52;;;1.70;99.90;;;1.63;89.08;98428.81;172007;28;1304;-76
2022/02/08 00:08:49;;;;;;;1.03;0.60;;;1.70;99.90;;;1.60;89.43;98421.94;174529;28;1031;-76
2022/02/08 00:08:55;;;;;;;0.98;0.62;;;1.70;99.90;;;1.65;89.20;98427.78;173797;28;1399;-76
2022/02/08 00:09:01;;;;;;;1.03;0.70;;;1.70;99.90;;;1.62;88.96;98427.97;173245;28;875;-76
2022/02/08 00:09:07;;;;;;;1.96;0.70;;;1.70;99.90;;;1.60;89.19;98424.59;172930;28;1334;-76
2022/02/08 00:09:15;;;;;;;2.40;0.70;;;1.70;99.90;;;1.50;89.37;98404.94;173036;28;1196;-76
2022/02/08 00:09:23;;;;;;;2.97;0.75;;;1.70;99.90;;;1.49;89.44;98408.56;172093;28;1209;-76
2022/02/08 00:09:31;;;;;;;3.00;0.70;;;1.70;99.90;;;1.66;89.47;98434.75;173240;28;887;-76
2022/02/08 00:09:37;;;;;;;1.70;0.63;;;1.70;99.90;;;1.58;89.35;98425.66;172448;28;1240;-76
2022/02/08 00:09:43;;;;;;;1.76;0.62;;;1.70;99.90;;;1.62;89.25;98429.78;171776;28;1535;-76
2022/02/08 00:09:49;;;;;;;1.67;0.57;;;1.70;99.90;;;1.52;89.35;98408.34;172449;28;1012;-76
2022/02/08 00:09:55;;;;;;;1.45;0.50;;;1.70;99.90;;;1.65;89.17;98435.72;171773;28;1428;-76
2022/02/08 00:10:01;;;;;;;1.45;0.60;;;1.70;99.90;;;1.65;89.00;98437.53;171515;28;1223;-76
2022/02/08 00:10:07;;;;;;;1.80;0.70;;;1.70;99.90;;;1.61;89.02;98423.63;171774;28;1401;-76
2022/02/08 00:10:14;;;;;;;1.55;0.63;;;1.70;99.90;;;1.66;88.97;98437.41;172180;28;1730;-76
2022/02/08 00:10:20;;;;;;;1.10;0.70;;;1.70;99.90;;;1.42;88.92;98391.38;173883;28;1252;-76
2022/02/08 00:10:27;;;;;;;1.03;0.70;;;1.70;99.90;;;1.58;89.61;98415.03;173666;28;1353;-76
2022/02/08 00:10:33;;;;;;;0.97;0.62;;;1.70;99.90;;;1.35;89.23;98381.31;173105;28;1338;-76
2022/02/08 00:10:40;;;;;;;0.52;0.52;;;1.70;99.90;;;1.57;89.18;98419.47;172498;28;904;-76
2022/02/08 00:10:46;;;;;;;0.50;0.50;;;1.70;99.90;;;1.62;89.11;98427.97;172418;28;1356;-76
2022/02/08 00:10:51;;;;;;;0.50;0.50;;;1.70;99.90;;;1.60;89.25;98427.25;172756;28;1120;-76
2022/02/08 00:10:58;;;;;;;0.43;0.43;;;1.70;99.90;;;1.55;89.18;98424.06;171783;28;1306;-76
2022/02/08 00:11:05;;;;;;;0.45;0.45;;;1.70;99.90;;;1.63;89.17;98434.97;173141;28;1428;-76
2022/02/08 00:11:11;;;;;;;0.78;0.58;;;1.70;99.90;;;1.52;88.90;98412.81;173814;28;1321;-76
2022/02/08 00:11:17;;;;;;;2.08;0.60;;;1.70;99.90;;;1.65;89.26;98446.34;173683;28;1103;-76
2022/02/08 00:11:23;;;;;;;2.47;0.60;;;1.70;99.90;;;1.61;89.34;98428.91;172926;28;1203;-76
2022/02/08 00:11:29;;;;;;;2.55;0.63;;;1.70;99.90;;;1.59;89.23;98417.59;172381;28;1279;-76
2022/02/08 00:11:35;;;;;;;2.85;0.65;;;1.70;99.90;;;1.68;89.35;98435.50;172975;28;1184;-76
2022/02/08 00:11:42;;;;;;;2.77;0.60;;;1.70;99.90;;;1.35;89.23;98381.31;173066;28;1434;-76
2022/02/08 00:11:48;;;;;;;1.30;0.67;;;1.70;99.90;;;1.57;88.90;98424.78;172348;28;1437;-76
2022/02/08 00:11:54;;;;;;;1.33;0.70;;;1.70;99.90;;;1.64;89.23;98428.72;171890;28;939;-76
2022/02/08 00:12:01;;;;;;;1.23;0.70;;;1.70;99.90;;;1.61;89.02;98426.25;172768;28;1110;-76
2022/02/08 00:12:08;;;;;;;1.13;0.70;;;1.70;99.90;;;1.63;89.09;98423.50;171647;28;1557;-76
2022/02/08 00:12:14;;;;;;;0.80;0.70;;;1.70;99.90;;;1.64;88.95;98434.03;172665;28;1394;-76
2022/02/08 00:12:20;;;;;;;1.70;0.70;;;1.70;99.90;;;1.65;89.22;98438.38;173231;28;966;-76
2022/02/08 00:12:26;;;;;;;1.70;0.70;;;1.70;99.90;;;1.60;88.93;98429.91;171680;28;1181;-76
2022/02/08 00:12:32;;;;;;;1.50;0.70;;;1.70;99.90;;;1.61;88.83;98428.91;171183;28;1248;-76
2022/02/08 00:12:38;;;;;;;1.55;0.70;;;1.70;99.90;;;1.62;88.95;98433.28;173254;28;1461;-76
2022/02/08 00:12:44;;;;;;;1.65;0.70;;;1.70;99.90;;;1.53;88.95;98412.72;173295;28;1205;-76
2022/02/08 00:12:50;;;;;;;0.90;0.60;;;1.70;99.90;;;1.63;89.20;98434.13;173174;28;1121;-76
2022/02/08 00:12:57;;;;;;;0.95;0.60;;;1.70;99.90;;;1.51;88.83;98409.31;172415;28;1410;-76
2022/02/08 00:13:03;;;;;;;1.17;0.70;;;1.70;99.90;;;1.67;89.15;98433.81;172438;28;1394;-76
2022/02/08 00:13:09;;;;;;;1.10;0.68;;;1.70;99.90;;;1.58;88.83;98418.53;172384;28;1203;-76
2022/02/08 00:13:15;;;;;;;1.30;0.60;;;1.80;99.90;;;1.66;88.88;98432.09;171106;28;919;-76
2022/02/08 00:13:21;;;;;;;0.98;0.60;;;1.70;99.90;;;1.70;89.17;98443.38;171576;28;974;-76
2022/02/08 00:13:27;;;;;;;1.05;0.60;;;1.70;99.90;;;1.53;89.17;98412.72;171698;28;1474;-76
2022/02/08 00:13:33;;;;;;;1.10;0.57;;;1.70;99.90;;;1.67;89.12;98439.09;172334;28;1056;-76
2022/02/08 00:13:39;;;;;;;1.20;0.60;;;1.70;99.90;;;1.57;89.42;98426.59;172773;28;1498;-76
2022/02/08 00:13:45;;;;;;;1.35;0.60;;;1.70;99.90;;;1.62;89.00;98433.28;172891;28;1347;-77
2022/02/08 00:13:51;;;;;;;1.48;0.70;;;1.70;99.90;;;1.61;89.10;98431.56;173114;28;911;-76
2022/02/08 00:13:57;;;;;;;1.42;0.70;;;1.70;99.90;;;1.65;89.14;98441.03;172862;28;1413;-76
2022/02/08 00:14:04;;;;;;;1.30;0.70;;;1.70;99.90;;;1.62;88.79;98430.63;171798;28;1222;-76
2022/02/08 00:14:10;;;;;;;1.00;0.60;;;1.70;99.90;;;1.60;89.28;98439.66;172425;28;1295;-76
2022/02/08 00:14:15;;;;;;;0.83;0.57;;;1.70;99.90;;;1.57;88.99;98427.44;171802;28;895;-76
2022/02/08 00:14:21;;;;;;;0.82;0.52;;;1.70;99.90;;;1.61;88.73;98439.53;172504;28;1532;-76
2022/02/08 00:14:28;;;;;;;0.85;0.57;;;1.70;99.90;;;1.61;89.06;98430.72;173119;28;1613;-76
2022/02/08 00:14:34;;;;;;;0.90;0.60;;;1.70;99.90;;;1.61;88.88;98425.41;172484;28;915;-76
2022/02/08 00:14:40;;;;;;;1.10;0.70;;;1.70;99.90;;;1.63;88.83;98427.03;172112;28;1443;-76
2022/02/08 00:14:47;;;;;;;1.27;0.77;;;1.70;99.90;;;1.67;89.42;98433.81;172486;28;1363;-76
2022/02/08 00:14:54;;;;;;;1.20;0.80;;;1.70;99.90;;;1.61;89.09;98426.25;173613;28;1310;-76
2022/02/08 00:15:01;;;;;;;1.30;0.80;;;1.70;99.90;;;1.53;89.40;98404.75;172971;28;1346;-76
2022/02/08 00:15:08;;;;;;;1.67;0.80;;;1.70;99.90;;;1.61;89.08;98426.25;172753;28;1744;-76
2022/02/08 00:15:14;;;;;;;1.44;0.76;;;1.80;99.90;;;1.53;89.16;98401.25;173652;28;1414;-76
2022/02/08 00:15:20;;;;;;;1.40;0.70;;;1.70;99.90;;;1.67;89.31;98435.59;173643;28;1221;-76
2022/02/08 00:15:26;;;;;;;1.30;0.67;;;1.80;99.90;;;1.58;89.44;98420.34;173070;28;1284;-77
2022/02/08 00:15:32;;;;;;;1.07;0.60;;;1.70;99.90;;;1.64;89.31;98420.75;173585;28;1413;-77
2022/02/08 00:15:38;;;;;;;1.00;0.60;;;1.70;99.90;;;1.58;89.36;98405.25;173233;28;792;-76
2022/02/08 00:15:44;;;;;;;1.00;0.60;;;1.70;99.90;;;1.60;88.97;98413.97;172993;28;1231;-76
2022/02/08 00:15:50;;;;;;;0.93;0.60;;;1.70;99.90;;;1.57;89.09;98416.84;170913;28;1068;-77
2022/02/08 00:15:56;;;;;;;1.00;0.60;;;1.70;99.90;;;1.61;88.85;98420.97;171861;28;1057;-76
2022/02/08 00:16:02;;;;;;;1.00;0.60;;;1.70;99.90;;;1.55;88.89;98408.16;171748;28;1181;-76
2022/02/08 00:16:08;;;;;;;0.75;0.63;;;1.70;99.90;;;1.63;89.25;98418.22;173278;28;883;-76
2022/02/08 00:16:14;;;;;;;0.67;0.60;;;1.70;99.90;;;1.64;89.05;98425.22;173239;28;1259;-77
2022/02/08 00:16:20;;;;;;;1.08;0.60;;;1.70;99.90;;;1.58;88.96;98423.00;173142;28;1252;-77
2022/02/08 00:16:26;;;;;;;2.33;0.60;;;1.70;99.90;;;1.64;89.35;98434.03;172938;28;1522;-77
2022/02/08 00:16:32;;;;;;;2.50;0.60;;;1.70;99.90;;;1.52;88.84;98413.66;171739;28;1554;-77
2022/02/08 00:16:38;;;;;;;2.40;0.60;;;1.70;99.90;;;1.52;88.96;98405.69;171774;28;926;-77
2022/02/08 00:16:44;;;;;;;2.65;0.60;;;1.70;99.90;;;1.39;88.99;98388.97;173109;28;1319;-77
2022/02/08 00:16:50;;;;;;;2.47;0.63;;;1.70;99.90;;;1.51;88.49;98409.31;172439;28;1026;-77
2022/02/08 00:16:56;;;;;;;1.70;0.77;;;1.70;99.90;;;1.45;89.05;98391.16;173075;28;1357;-77
2022/02/08 00:17:03;;;;;;;1.70;0.70;;;1.70;99.90;;;1.41;89.07;98392.34;173766;28;1537;-76
2022/02/08 00:17:09;;;;;;;1.76;0.70;;;1.70;99.90;;;1.63;88.67;98424.38;172233;28;1342;-77
2022/02/08 00:17:15;;;;;;;2.05;0.88;;;1.70;99.90;;;1.61;88.72;98420.97;172313;28;1180;-77
2022/02/08 00:17:21;;;;;;;2.13;0.90;;;1.70;99.90;;;1.57;88.60;98413.31;172510;28;1402;-77
2022/02/08 00:17:27;;;;;;;1.65;0.80;;;1.70;99.90;;;1.68;88.98;98438.16;173088;28;1331;-77
2022/02/08 00:17:34;;;;;;;2.00;0.95;;;1.70;99.90;;;1.70;89.01;98441.56;174091;28;1277;-77
2022/02/08 00:17:40;;;;;;;2.96;1.00;;;1.70;99.90;;;1.62;88.85;98425.31;173281;28;911;-77
2022/02/08 00:17:47;;;;;;;2.33;0.80;;;1.70;99.90;;;1.70;89.00;98441.56;172438;28;1204;-77
2022/02/08 00:17:53;;;;;;;2.24;0.80;;;1.70;99.90;;;1.59;88.73;98419.38;172453;28;1452;-77
2022/02/08 00:17:59;;;;;;;2.20;0.80;;;1.70;99.90;;;1.53;88.61;98409.19;173311;28;1376;-77
2022/02/08 00:18:05;;;;;;;1.27;0.70;;;1.70;99.90;;;1.63;88.80;98436.78;173158;28;1232;-77
2022/02/08 00:18:11;;;;;;;0.93;0.70;;;1.70;99.90;;;1.60;88.83;98424.59;172985;28;914;-77
2022/02/08 00:18:17;;;;;;;1.00;0.70;;;1.70;99.90;;;1.69;88.60;98444.31;173769;28;1427;-77
2022/02/08 00:18:23;;;;;;;1.05;0.73;;;1.70;99.90;;;1.58;89.00;98421.19;173713;28;1286;-77
2022/02/08 00:18:29;;;;;;;1.20;0.70;;;1.70;99.90;;;1.62;89.04;98427.97;173771;28;1371;-77
2022/02/08 00:18:35;;;;;;;1.17;0.65;;;1.70;99.90;;;1.70;89.30;98432.75;171733;28;1299;-77
2022/02/08 00:18:41;;;;;;;1.00;0.60;;;1.70;99.90;;;1.66;88.83;98437.41;172714;28;1343;-77
2022/02/08 00:18:47;;;;;;;0.90;0.60;;;1.70;99.90;;;1.61;89.02;98417.44;171780;28;971;-77
2022/02/08 00:18:52;;;;;;;0.80;0.43;;;1.70;99.90;;;1.68;88.72;98429.34;172063;28;1429;-77
2022/02/08 00:18:59;;;;;;;0.82;0.50;;;1.70;99.90;;;1.69;89.17;98431.91;172413;28;1366;-77
2022/02/08 00:19:05;;;;;;;0.90;0.50;;;1.70;99.90;;;1.56;88.81;98406.31;172789;28;1119;-77
2022/02/08 00:19:11;;;;;;;1.18;0.64;;;1.70;99.90;;;1.63;88.88;98419.06;172437;28;1491;-77
2022/02/08 00:19:18;;;;;;;1.42;0.70;;;1.70;99.90;;;1.56;89.12;98406.31;174560;28;1231;-77
2022/02/08 00:19:24;;;;;;;1.50;0.80;;;1.70;99.90;;;1.69;88.94;98429.25;173207;28;918;-77
2022/02/08 00:19:30;;;;;;;1.20;0.73;;;1.70;99.90;;;1.56;89.30;98406.31;173749;28;1074;-77
2022/02/08 00:19:36;;;;;;;1.50;0.80;;;1.70;99.90;;;1.65;89.06;98416.31;173708;28;1215;-77
2022/02/08 00:19:42;;;;;;;1.35;0.73;;;1.70;99.90;;;1.58;89.22;98405.25;173102;28;1294;-77
2022/02/08 00:19:48;;;;;;;1.10;0.60;;;1.70;99.90;;;1.63;89.14;98411.09;172887;28;1246;-77
2022/02/08 00:19:54;;;;;;;1.45;0.65;;;1.70;99.90;;;1.65;89.10;98417.16;172577;28;812;-76
2022/02/08 00:20:00;;;;;;;2.17;0.70;;;1.70;99.90;;;1.65;89.32;98418.97;173066;28;1238;-76
2022/02/08 00:20:08;;;;;;;2.37;0.60;;;1.70;99.90;;;1.52;89.55;98403.03;172854;28;1356;-76
2022/02/08 00:20:14;;;;;;;2.33;0.70;;;1.70;99.90;;;1.67;89.53;98423.19;173083;28;1258;-77
2022/02/08 00:20:20;;;;;;;2.38;0.70;;;1.70;99.90;;;1.51;89.36;98405.78;173819;28;1458;-77
2022/02/08 00:20:26;;;;;;;1.86;0.70;;;1.70;99.90;;;1.62;89.59;98416.50;173806;28;1353;-77
2022/02/08 00:20:32;;;;;;;1.07;0.70;;;1.70;99.90;;;1.63;89.34;98416.41;173220;28;1272;-77
2022/02/08 00:20:38;;;;;;;1.48;0.80;;;1.70;99.90;;;1.32;89.51;98369.13;172441;28;1370;-77
2022/02/08 00:20:44;;;;;;;1.52;0.80;;;1.70;99.90;;;1.65;89.36;98424.25;171712;28;1336;-77
2022/02/08 00:20:50;;;;;;;2.00;0.73;;;1.70;99.90;;;1.57;89.82;98405.38;172334;28;1311;-76
2022/02/08 00:20:56;;;;;;;2.08;0.70;;;1.70;99.90;;;1.61;89.53;98413.00;171257;28;1002;-76
2022/02/08 00:21:02;;;;;;;2.20;0.70;;;1.70;99.90;;;1.62;89.93;98421.81;172573;28;1024;-76
2022/02/08 00:21:08;;;;;;;1.67;0.63;;;1.70;99.90;;;1.51;89.75;98404.00;172433;28;1330;-77
2022/02/08 00:21:14;;;;;;;2.37;0.63;;;1.70;99.90;;;1.58;89.41;98407.91;172348;28;1279;-77
2022/02/08 00:21:20;;;;;;;2.03;0.60;;;1.70;99.90;;;1.69;89.59;98429.25;172322;28;1398;-77
2022/02/08 00:21:26;;;;;;;1.85;0.60;;;1.70;99.90;;;1.61;89.73;98412.16;173235;28;953;-77
2022/02/08 00:21:32;;;;;;;1.70;0.50;;;1.70;99.90;;;1.62;89.92;98422.66;172903;28;1353;-77
2022/02/08 00:21:38;;;;;;;1.73;0.60;;;1.70;99.90;;;1.63;89.86;98427.03;173901;28;922;-77
2022/02/08 00:21:45;;;;;;;1.67;0.68;;;1.70;99.90;;;1.59;89.75;98414.06;172933;28;1415;-77
2022/02/08 00:21:51;;;;;;;1.80;0.78;;;1.70;99.90;;;1.64;89.57;98419.91;172512;28;1152;-76
2022/02/08 00:21:56;;;;;;;1.80;0.80;;;1.70;99.90;;;1.54;89.40;98413.56;172268;28;1078;-77
2022/02/08 00:22:04;;;;;;;1.88;0.80;;;1.70;99.90;;;1.43;89.46;98401.03;172450;28;1516;-77
2022/02/08 00:22:10;;;;;;;1.80;0.75;;;1.70;99.90;;;1.64;89.15;98434.03;172981;28;1564;-77
2022/02/08 00:22:16;;;;;;;1.05;0.60;;;1.70;99.90;;;1.57;89.36;98413.31;172453;28;1314;-77
2022/02/08 00:22:22;;;;;;;0.88;0.60;;;1.70;99.90;;;1.63;89.40;98432.31;172520;28;1318;-77
2022/02/08 00:22:28;;;;;;;0.90;0.60;;;1.70;99.90;;;1.38;89.63;98387.25;174407;28;1290;-77
2022/02/08 00:22:38;;;;;;;0.80;0.50;;;1.70;99.90;;;1.48;89.25;98411.34;173890;28;1215;-77
2022/02/08 00:22:44;;;;;;;1.00;0.60;;;1.70;99.90;;;1.66;89.11;98444.50;173026;28;1337;-77
2022/02/08 00:22:50;;;;;;;1.02;0.60;;;1.70;99.90;;;1.54;89.39;98422.38;172413;28;1545;-77
2022/02/08 00:22:56;;;;;;;1.10;0.60;;;1.70;99.90;;;1.58;89.59;98423.00;172543;28;915;-76
2022/02/08 00:23:02;;;;;;;1.23;0.63;;;1.70;99.90;;;1.62;89.52;98435.94;171256;28;1010;-76
2022/02/08 00:23:08;;;;;;;1.30;0.60;;;1.70;99.90;;;1.57;89.29;98423.94;171803;28;1186;-76
2022/02/08 00:23:14;;;;;;;1.10;0.63;;;1.70;99.90;;;1.60;89.34;98427.25;172302;28;1295;-77
2022/02/08 00:23:20;;;;;;;1.13;0.70;;;1.70;99.90;;;1.23;89.21;98367.13;172458;28;1231;-77
2022/02/08 00:23:26;;;;;;;1.10;0.77;;;1.70;99.90;;;1.55;89.43;98432.03;171740;28;1196;-77
2022/02/08 00:23:32;;;;;;;1.20;0.80;;;1.70;99.90;;;1.58;89.15;98423.84;171679;28;1205;-77
2022/02/08 00:23:38;;;;;;;1.52;0.82;;;1.70;99.90;;;1.57;89.32;98424.78;173208;28;1000;-77
2022/02/08 00:23:43;;;;;;;1.27;0.77;;;1.70;99.90;;;1.49;89.60;98411.22;173141;28;854;-77
2022/02/08 00:23:49;;;;;;;1.25;0.70;;;1.70;99.90;;;1.62;89.18;98443.88;172578;28;1479;-76
2022/02/08 00:23:55;;;;;;;1.40;0.70;;;1.70;99.90;;;1.61;89.48;98430.72;172445;28;1123;-76
2022/02/08 00:24:02;;;;;;;1.27;0.70;;;1.70;99.90;;;1.58;89.30;98429.16;172396;28;1497;-77
2022/02/08 00:24:08;;;;;;;1.07;0.60;;;1.70;99.90;;;1.47;89.30;98410.47;172442;28;1554;-77
2022/02/08 00:24:14;;;;;;;1.10;0.60;;;1.70;99.90;;;1.61;89.24;98430.72;173678;28;1473;-77
2022/02/08 00:24:20;;;;;;;1.23;0.60;;;1.70;99.90;;;1.56;89.00;98428.41;172320;28;1382;-77
2022/02/08 00:24:26;;;;;;;1.00;0.60;;;1.70;99.90;;;1.46;89.65;98416.72;173847;28;1377;-77
2022/02/08 00:24:35;;;;;;;1.20;0.70;;;1.70;99.90;;;1.61;89.44;98444.84;173928;28;1272;-77
2022/02/08 00:24:41;;;;;;;1.13;0.80;;;1.70;99.90;;;1.55;89.64;98434.69;173709;28;1465;-77
2022/02/08 00:24:47;;;;;;;1.23;0.80;;;1.70;99.90;;;1.59;89.31;98438.81;172314;28;1206;-76
2022/02/08 00:24:54;;;;;;;1.13;0.70;;;1.70;99.90;;;1.33;89.74;98399.16;172568;28;809;-76
2022/02/08 00:25:00;;;;;;;1.10;0.70;;;1.70;99.90;;;1.58;89.22;98439.75;172477;28;990;-76
2022/02/08 00:25:07;;;;;;;1.25;0.73;;;1.70;99.90;;;1.58;89.80;98439.75;172101;28;1299;-77
2022/02/08 00:25:13;;;;;;;1.05;0.70;;;1.70;99.90;;;1.57;89.46;98435.41;172476;28;840;-77
2022/02/08 00:25:19;;;;;;;1.20;0.70;;;1.70;99.90;;;1.57;89.92;98435.41;172933;28;1063;-77
2022/02/08 00:25:25;;;;;;;1.17;0.70;;;1.60;99.90;;;1.59;89.83;98438.81;173080;28;1373;-77
2022/02/08 00:25:31;;;;;;;1.03;0.60;;;1.70;99.90;;;1.50;89.56;98426.16;173091;28;1303;-77
2022/02/08 00:25:37;;;;;;;0.77;0.55;;;1.70;99.90;;;1.57;89.52;98438.06;172392;28;1426;-77
2022/02/08 00:25:44;;;;;;;0.73;0.55;;;1.60;99.90;;;1.52;90.00;98424.28;173720;28;1499;-77
2022/02/08 00:25:50;;;;;;;0.78;0.72;;;1.70;99.90;;;1.45;89.66;98420.34;173117;28;978;-77
2022/02/08 00:25:56;;;;;;;0.80;0.80;;;1.70;99.90;;;1.48;90.08;98420.13;173017;28;1271;-77
2022/02/08 00:26:02;;;;;;;1.10;0.75;;;1.60;99.90;;;1.51;89.56;98435.84;173119;28;1420;-77
2022/02/08 00:26:08;;;;;;;1.10;0.80;;;1.60;99.90;;;1.52;89.88;98431.38;173648;28;1380;-77
2022/02/08 00:26:14;;;;;;;1.08;0.75;;;1.60;99.90;;;1.53;89.81;98433.09;172513;28;1194;-77
2022/02/08 00:26:20;;;;;;;1.02;0.58;;;1.60;99.90;;;1.55;89.72;98440.00;172498;28;1415;-77
2022/02/08 00:26:26;;;;;;;1.45;0.70;;;1.60;99.90;;;1.51;89.77;98430.53;173513;28;1341;-77
2022/02/08 00:26:32;;;;;;;1.27;0.70;;;1.60;99.90;;;1.57;89.82;98442.50;173391;28;1549;-77
2022/02/08 00:26:38;;;;;;;1.20;0.60;;;1.60;99.90;;;1.57;89.76;98438.06;172609;28;1069;-77
2022/02/08 00:26:44;;;;;;;1.05;0.60;;;1.60;99.90;;;1.43;89.82;98410.81;173109;28;1002;-77
2022/02/08 00:26:50;;;;;;;1.05;0.60;;;1.60;99.90;;;1.41;90.19;98410.91;173008;28;1269;-77
2022/02/08 00:26:56;;;;;;;0.52;0.50;;;1.60;99.90;;;1.49;90.05;98423.66;173804;28;1499;-77
2022/02/08 00:27:02;;;;;;;0.70;0.50;;;1.60;99.90;;;1.51;90.57;98427.88;172466;28;903;-77
2022/02/08 00:27:08;;;;;;;0.85;0.60;;;1.60;99.90;;;1.55;89.97;98437.34;173881;28;891;-77
2022/02/08 00:27:14;;;;;;;0.98;0.60;;;1.60;99.90;;;1.50;90.14;98431.47;172526;28;1558;-76
2022/02/08 00:27:20;;;;;;;1.42;0.70;;;1.60;99.90;;;1.45;89.99;98428.28;173171;28;1240;-77
2022/02/08 00:27:26;;;;;;;1.55;0.70;;;1.60;99.90;;;1.34;90.25;98408.81;172466;28;848;-77
2022/02/08 00:27:33;;;;;;;1.75;0.70;;;1.60;99.90;;;1.43;90.69;98422.28;173162;28;1218;-77
2022/02/08 00:27:39;;;;;;;1.80;0.70;;;1.60;99.90;;;1.38;90.34;98410.28;173135;28;1293;-77
2022/02/08 00:27:45;;;;;;;1.92;0.70;;;1.60;99.90;;;1.36;90.19;98406.88;172190;28;1390;-77
2022/02/08 00:27:50;;;;;;;1.60;0.63;;;1.60;99.90;;;1.39;90.26;98418.13;173784;28;1224;-77
2022/02/08 00:27:56;;;;;;;1.40;0.60;;;1.60;99.90;;;1.45;90.63;98430.13;173447;28;1295;-77
2022/02/08 00:28:03;;;;;;;1.00;0.55;;;1.60;99.90;;;1.46;90.67;98437.97;171869;28;925;-77
2022/02/08 00:28:09;;;;;;;0.90;0.50;;;1.60;99.90;;;1.45;90.60;98427.47;172966;28;1442;-77
2022/02/08 00:28:16;;;;;;;0.77;0.50;;;1.60;99.90;;;1.25;90.42;98403.16;173215;28;919;-77
2022/02/08 00:28:22;;;;;;;0.75;0.50;;;1.60;99.90;;;1.45;90.38;98435.44;172757;28;1514;-77
2022/02/08 00:28:28;;;;;;;0.90;0.50;;;1.60;99.90;;;1.41;90.46;98423.31;172461;28;1564;-77
2022/02/08 00:28:34;;;;;;;1.02;0.50;;;1.60;99.90;;;1.42;90.76;98433.84;171957;28;1316;-77
2022/02/08 00:28:40;;;;;;;1.25;0.68;;;1.60;99.90;;;1.41;90.42;98429.47;172459;28;1196;-77
2022/02/08 00:28:46;;;;;;;1.30;0.70;;;1.60;99.90;;;1.42;90.69;98439.13;172234;28;1299;-76
2022/02/08 00:28:52;;;;;;;1.30;0.70;;;1.60;99.90;;;1.41;90.78;98434.78;172377;28;1485;-76
2022/02/08 00:28:58;;;;;;;1.25;0.75;;;1.60;99.90;;;1.41;90.52;98436.59;173148;28;1520;-77
2022/02/08 00:29:05;;;;;;;1.50;0.80;;;1.60;99.90;;;1.33;90.80;98425.66;173060;28;1071;-77
2022/02/08 00:29:11;;;;;;;1.63;0.70;;;1.50;99.90;;;1.36;90.48;98428.94;173175;28;1319;-77